createdAt,value
2017-11-22T00:00:15.346Z,76.80
2017-11-22T00:02:42.845Z,76.83
2017-11-22T00:05:10.367Z,77.11
2017-11-22T00:07:37.923Z,76.69
2017-11-22T00:10:05.385Z,76.98
2017-11-22T00:12:33.987Z,76.82
2017-11-22T00:15:01.463Z,76.88
2017-11-22T00:17:28.961Z,76.91
2017-11-22T00:19:56.441Z,76.69
2017-11-22T00:22:23.927Z,77.21
2017-11-22T00:24:52.319Z,77.13
2017-11-22T00:27:19.813Z,76.91
2017-11-22T00:29:47.315Z,76.83
2017-11-22T00:32:15.901Z,76.58
2017-11-22T00:34:43.368Z,76.79
2017-11-22T00:37:10.869Z,76.67
2017-11-22T00:39:38.306Z,76.64
2017-11-22T00:42:05.789Z,76.69
2017-11-22T00:44:34.108Z,76.62
2017-11-22T00:47:01.575Z,76.57
2017-11-22T00:49:29.047Z,76.14
2017-11-22T00:51:56.554Z,76.59
2017-11-22T00:54:24.017Z,76.94
2017-11-22T00:56:51.482Z,76.41
2017-11-22T00:59:19.021Z,76.38
2017-11-22T01:01:46.481Z,76.76
2017-11-22T01:04:14.402Z,76.65
2017-11-22T01:06:42.585Z,77.02
2017-11-22T01:09:10.034Z,76.87
2017-11-22T01:11:37.515Z,76.96
2017-11-22T01:14:05.019Z,77.22
2017-11-22T01:16:36.393Z,76.96
2017-11-22T01:19:03.864Z,77.16
2017-11-22T01:21:31.978Z,77.41
2017-11-22T01:23:59.432Z,77.44
2017-11-22T01:26:26.888Z,77.38
2017-11-22T01:28:54.348Z,77.40
2017-11-22T01:31:21.796Z,77.02
2017-11-22T01:33:49.244Z,76.87
2017-11-22T01:36:16.729Z,77.05
2017-11-22T01:38:44.184Z,77.44
2017-11-22T01:41:11.632Z,77.43
2017-11-22T01:43:39.090Z,77.15
2017-11-22T01:46:06.618Z,76.85
2017-11-22T01:48:34.093Z,77.01
2017-11-22T01:51:01.541Z,77.45
2017-11-22T01:53:29.050Z,77.11
2017-11-22T01:55:56.604Z,76.70
2017-11-22T01:58:24.044Z,76.48
2017-11-22T02:00:53.553Z,76.06
2017-11-22T02:03:21.016Z,75.59
2017-11-22T02:05:48.504Z,75.73
2017-11-22T02:08:16.600Z,75.27
2017-11-22T02:10:44.057Z,75.08
2017-11-22T02:13:11.515Z,74.66
2017-11-22T02:15:39.001Z,74.35
2017-11-22T02:18:06.482Z,74.42
2017-11-22T02:20:35.829Z,74.32
2017-11-22T02:23:03.296Z,74.61
2017-11-22T02:25:30.752Z,74.45
2017-11-22T02:27:58.209Z,74.56
2017-11-22T02:30:28.335Z,73.56
2017-11-22T02:32:55.790Z,73.81
2017-11-22T02:35:23.233Z,73.83
2017-11-22T02:37:50.684Z,73.59
2017-11-22T02:40:18.136Z,73.43
2017-11-22T02:42:45.707Z,73.52
2017-11-22T02:45:13.190Z,73.84
2017-11-22T02:47:40.642Z,73.53
2017-11-22T02:50:08.090Z,73.39
2017-11-22T02:52:35.934Z,73.77
2017-11-22T02:55:03.398Z,73.65
2017-11-22T02:57:30.885Z,73.75
2017-11-22T02:59:58.452Z,74.08
2017-11-22T03:02:25.892Z,73.90
2017-11-22T03:04:53.394Z,73.49
2017-11-22T03:07:20.848Z,73.24
2017-11-22T03:09:48.284Z,73.49
2017-11-22T03:12:15.768Z,73.85
2017-11-22T03:14:43.223Z,73.33
2017-11-22T03:17:10.668Z,73.10
2017-11-22T03:19:38.144Z,73.50
2017-11-22T03:22:05.578Z,72.85
2017-11-22T03:24:33.056Z,72.79
2017-11-22T03:27:00.511Z,72.49
2017-11-22T03:29:27.959Z,72.73
2017-11-22T03:31:55.406Z,72.65
2017-11-22T03:34:22.878Z,72.33
2017-11-22T03:36:50.568Z,71.90
2017-11-22T03:39:18.141Z,71.85
2017-11-22T03:41:45.604Z,72.17
2017-11-22T03:44:13.172Z,71.80
2017-11-22T03:46:40.651Z,71.11
2017-11-22T03:49:08.888Z,71.58
2017-11-22T03:51:41.849Z,71.58
2017-11-22T03:54:09.377Z,71.77
2017-11-22T03:56:36.834Z,71.72
2017-11-22T03:59:04.306Z,71.25
2017-11-22T04:01:46.368Z,70.64
2017-11-22T04:04:16.349Z,70.37
2017-11-22T04:06:44.073Z,70.59
2017-11-22T04:09:11.545Z,70.24
2017-11-22T04:11:39.153Z,69.90
2017-11-22T04:14:06.625Z,69.18
2017-11-22T04:16:35.403Z,69.11
2017-11-22T04:19:08.528Z,68.86
2017-11-22T04:21:36.068Z,69.36
2017-11-22T04:24:03.609Z,68.71
2017-11-22T04:26:33.991Z,68.87
2017-11-22T04:29:01.444Z,69.17
2017-11-22T04:31:28.927Z,68.85
2017-11-22T04:33:56.381Z,68.55
2017-11-22T04:36:24.172Z,68.69
2017-11-22T04:38:51.660Z,68.50
2017-11-22T04:41:19.124Z,68.26
2017-11-22T04:43:46.641Z,68.63
2017-11-22T04:46:14.236Z,68.95
2017-11-22T04:48:41.767Z,69.18
2017-11-22T04:51:09.224Z,69.37
2017-11-22T04:53:36.697Z,68.99
2017-11-22T04:56:04.169Z,69.19
2017-11-22T04:58:31.660Z,69.17
2017-11-22T05:00:59.155Z,69.89
2017-11-22T05:03:26.601Z,69.09
2017-11-22T05:05:54.132Z,69.07
2017-11-22T05:08:21.596Z,68.99
2017-11-22T05:10:49.048Z,68.83
2017-11-22T05:13:16.551Z,68.90
2017-11-22T05:15:44.056Z,68.43
2017-11-22T05:18:11.605Z,68.42
2017-11-22T05:20:39.131Z,68.79
2017-11-22T05:23:06.594Z,68.48
2017-11-22T05:25:34.047Z,68.50
2017-11-22T05:28:01.517Z,68.59
2017-11-22T05:30:29.017Z,68.61
2017-11-22T05:32:56.493Z,68.07
2017-11-22T05:35:23.969Z,67.94
2017-11-22T05:37:51.432Z,68.07
2017-11-22T05:40:18.888Z,67.93
2017-11-22T05:42:47.169Z,67.70
2017-11-22T05:45:15.537Z,67.51
2017-11-22T05:47:42.978Z,67.69
2017-11-22T05:50:10.509Z,67.20
2017-11-22T05:52:37.953Z,66.99
2017-11-22T05:55:05.413Z,67.19
2017-11-22T05:57:32.862Z,67.36
2017-11-22T06:00:00.616Z,67.42
2017-11-22T06:02:28.102Z,67.28
2017-11-22T06:04:55.600Z,67.53
2017-11-22T06:07:23.059Z,67.27
2017-11-22T06:09:50.561Z,67.30
2017-11-22T06:12:18.039Z,67.19
2017-11-22T06:14:45.484Z,67.25
2017-11-22T06:17:12.948Z,66.82
2017-11-22T06:19:40.473Z,66.85
2017-11-22T06:22:07.933Z,66.70
2017-11-22T06:24:35.420Z,66.31
2017-11-22T06:27:02.873Z,66.21
2017-11-22T06:29:30.368Z,65.94
2017-11-22T06:31:57.824Z,66.17
2017-11-22T06:34:25.764Z,66.18
2017-11-22T06:36:53.250Z,65.90
2017-11-22T06:39:24.505Z,66.03
2017-11-22T06:41:51.992Z,65.92
2017-11-22T06:44:19.456Z,65.60
2017-11-22T06:46:46.917Z,65.45
2017-11-22T06:49:14.396Z,65.60
2017-11-22T06:51:41.830Z,65.21
2017-11-22T06:54:09.291Z,64.99
2017-11-22T06:56:37.048Z,64.74
2017-11-22T06:59:05.170Z,64.29
2017-11-22T07:01:32.653Z,64.64
2017-11-22T07:04:00.117Z,64.12
2017-11-22T07:06:28.865Z,63.92
2017-11-22T07:08:56.390Z,63.86
2017-11-22T07:11:23.846Z,63.90
2017-11-22T07:13:51.309Z,63.34
2017-11-22T07:16:24.299Z,63.07
2017-11-22T07:18:51.969Z,62.46
2017-11-22T07:21:19.429Z,62.45
2017-11-22T07:23:46.907Z,62.44
2017-11-22T07:26:14.366Z,62.16
2017-11-22T07:28:41.835Z,61.71
2017-11-22T07:31:09.288Z,61.23
2017-11-22T07:33:36.732Z,61.21
2017-11-22T07:36:09.789Z,61.05
2017-11-22T07:38:37.358Z,60.71
2017-11-22T07:41:04.824Z,60.58
2017-11-22T07:43:32.328Z,60.65
2017-11-22T07:45:59.953Z,60.55
2017-11-22T07:48:27.577Z,60.44
2017-11-22T07:50:58.653Z,60.25
2017-11-22T07:53:26.109Z,60.30
2017-11-22T07:55:53.581Z,60.04
2017-11-22T07:58:21.839Z,60.19
2017-11-22T08:00:49.389Z,59.55
2017-11-22T08:03:22.544Z,59.66
2017-11-22T08:05:50.012Z,59.24
2017-11-22T08:08:17.508Z,59.12
2017-11-22T08:10:44.961Z,59.31
2017-11-22T08:13:12.422Z,58.49
2017-11-22T08:15:39.890Z,58.82
2017-11-22T08:18:07.338Z,58.44
2017-11-22T08:20:34.915Z,57.76
2017-11-22T08:23:02.363Z,57.99
2017-11-22T08:25:29.826Z,57.70
2017-11-22T08:27:57.297Z,57.17
2017-11-22T08:30:24.862Z,57.13
2017-11-22T08:32:52.350Z,57.11
2017-11-22T08:35:19.812Z,56.99
2017-11-22T08:37:47.252Z,57.09
2017-11-22T08:40:15.681Z,56.90
2017-11-22T08:42:43.153Z,56.52
2017-11-22T08:45:10.619Z,56.39
2017-11-22T08:47:38.684Z,56.44
2017-11-22T08:50:06.203Z,56.18
2017-11-22T08:52:33.886Z,55.95
2017-11-22T08:55:07.227Z,55.39
2017-11-22T08:57:40.339Z,55.15
2017-11-22T09:00:13.298Z,55.05
2017-11-22T09:02:44.565Z,55.00
2017-11-22T09:05:12.032Z,54.78
2017-11-22T09:07:39.494Z,54.41
2017-11-22T09:10:06.998Z,53.94
2017-11-22T09:12:40.051Z,53.61
2017-11-22T09:15:09.107Z,53.53
2017-11-22T09:17:36.578Z,53.27
2017-11-22T09:20:05.916Z,52.68
2017-11-22T09:22:34.497Z,53.04
2017-11-22T09:25:06.366Z,52.75
2017-11-22T09:27:39.434Z,52.26
2017-11-22T09:30:12.674Z,52.21
2017-11-22T09:32:40.199Z,51.83
2017-11-22T09:35:07.653Z,51.59
2017-11-22T09:37:35.115Z,51.52
2017-11-22T09:40:02.608Z,51.06
2017-11-22T09:42:30.246Z,51.29
2017-11-22T09:44:57.704Z,50.64
2017-11-22T09:47:25.189Z,50.75
2017-11-22T09:49:52.644Z,50.76
2017-11-22T09:52:20.102Z,50.47
2017-11-22T09:54:47.577Z,50.32
2017-11-22T09:57:15.961Z,50.19
2017-11-22T09:59:43.413Z,49.77
2017-11-22T10:02:10.870Z,49.88
2017-11-22T10:04:38.340Z,49.65
2017-11-22T10:07:05.816Z,49.37
2017-11-22T10:09:33.311Z,49.12
2017-11-22T10:12:01.012Z,49.17
2017-11-22T10:14:28.478Z,48.23
2017-11-22T10:17:01.483Z,48.14
2017-11-22T10:19:28.937Z,47.84
2017-11-22T10:22:01.957Z,47.85
2017-11-22T10:24:33.304Z,48.08
2017-11-22T10:27:06.247Z,48.17
2017-11-22T10:29:39.270Z,48.24
2017-11-22T10:32:06.752Z,48.25
2017-11-22T10:34:34.672Z,48.30
2017-11-22T10:37:02.150Z,47.95
2017-11-22T10:39:29.631Z,47.86
2017-11-22T10:41:57.077Z,47.53
2017-11-22T10:44:24.552Z,47.49
2017-11-22T10:46:52.057Z,47.04
2017-11-22T10:49:19.537Z,47.25
2017-11-22T10:51:47.011Z,46.85
2017-11-22T10:54:14.479Z,46.66
2017-11-22T10:56:41.947Z,46.42
2017-11-22T10:59:09.447Z,45.92
2017-11-22T11:01:37.115Z,45.74
2017-11-22T11:04:04.565Z,45.20
2017-11-22T11:06:32.036Z,44.73
2017-11-22T11:08:59.508Z,44.52
2017-11-22T11:11:27.000Z,44.12
2017-11-22T11:13:54.481Z,43.87
2017-11-22T11:16:21.930Z,43.45
2017-11-22T11:18:49.384Z,43.56
2017-11-22T11:21:17.006Z,43.98
2017-11-22T11:23:44.463Z,44.01
2017-11-22T11:26:11.965Z,44.06
2017-11-22T11:28:39.433Z,43.62
2017-11-22T11:31:06.931Z,43.89
2017-11-22T11:33:34.377Z,43.90
2017-11-22T11:39:06.052Z,43.01
2017-11-22T11:41:33.531Z,42.81
2017-11-22T11:44:01.005Z,42.67
2017-11-22T11:46:28.465Z,42.02
2017-11-22T11:48:55.925Z,41.64
2017-11-22T11:51:23.417Z,41.20
2017-11-22T11:53:50.869Z,41.34
2017-11-22T11:56:19.279Z,41.47
2017-11-22T11:58:46.745Z,41.33
2017-11-22T12:01:14.206Z,41.48
2017-11-22T12:03:41.660Z,41.51
2017-11-22T12:06:09.110Z,41.70
2017-11-22T12:08:36.565Z,41.22
2017-11-22T12:11:04.037Z,41.49
2017-11-22T12:13:31.505Z,41.20
2017-11-22T12:15:58.985Z,40.87
2017-11-22T12:18:27.576Z,40.45
2017-11-22T12:21:00.884Z,40.27
2017-11-22T12:23:28.984Z,40.00
2017-11-22T12:25:56.446Z,39.76
2017-11-22T12:28:23.940Z,39.80
2017-11-22T12:30:53.011Z,39.59
2017-11-22T12:33:20.455Z,39.82
2017-11-22T12:35:47.986Z,39.33
2017-11-22T12:38:16.420Z,39.62
2017-11-22T12:40:43.872Z,39.72
2017-11-22T12:43:11.691Z,39.80
2017-11-22T12:45:39.164Z,40.06
2017-11-22T12:48:06.706Z,39.72
2017-11-22T12:50:35.363Z,39.75
2017-11-22T12:53:02.814Z,39.85
2017-11-22T12:55:30.304Z,40.10
2017-11-22T12:58:00.700Z,39.75
2017-11-22T13:00:28.300Z,39.93
2017-11-22T13:02:55.785Z,39.86
2017-11-22T13:05:23.291Z,39.91
2017-11-22T13:07:50.790Z,39.79
2017-11-22T13:10:20.093Z,40.15
2017-11-22T13:12:48.526Z,39.48
2017-11-22T13:15:16.214Z,39.76
2017-11-22T13:17:43.683Z,39.86
2017-11-22T13:20:11.172Z,39.89
2017-11-22T13:22:38.648Z,39.67
2017-11-22T13:25:06.174Z,39.46
2017-11-22T13:27:33.668Z,39.54
2017-11-22T13:30:01.138Z,39.67
2017-11-22T13:32:34.451Z,39.73
2017-11-22T13:35:01.920Z,39.89
2017-11-22T13:37:29.414Z,39.62
2017-11-22T13:39:56.885Z,39.27
2017-11-22T13:42:24.361Z,39.28
2017-11-22T13:44:51.853Z,39.36
2017-11-22T13:47:19.340Z,39.07
2017-11-22T13:49:46.815Z,39.22
2017-11-22T13:52:14.971Z,38.61
2017-11-22T13:54:43.073Z,38.72
2017-11-22T13:57:10.543Z,38.57
2017-11-22T13:59:38.034Z,38.07
2017-11-22T14:02:05.490Z,37.85
2017-11-22T14:04:35.679Z,37.90
2017-11-22T14:07:03.174Z,37.39
2017-11-22T14:09:30.684Z,37.65
2017-11-22T14:11:58.185Z,37.62
2017-11-22T14:14:25.639Z,37.88
2017-11-22T14:16:53.134Z,37.54
2017-11-22T14:19:20.763Z,37.75
2017-11-22T14:21:48.293Z,37.85
2017-11-22T14:24:15.757Z,38.19
2017-11-22T14:26:43.242Z,38.61
2017-11-22T14:29:10.730Z,38.59
2017-11-22T14:31:38.293Z,39.04
2017-11-22T14:34:05.753Z,39.10
2017-11-22T14:36:35.137Z,38.99
2017-11-22T14:39:02.624Z,39.24
2017-11-22T14:41:30.101Z,39.54
2017-11-22T14:43:57.593Z,39.47
2017-11-22T14:46:25.092Z,39.15
2017-11-22T14:48:53.233Z,39.22
2017-11-22T14:51:20.680Z,39.55
2017-11-22T14:53:48.173Z,39.89
2017-11-22T14:56:17.069Z,40.57
2017-11-22T14:58:44.524Z,40.86
2017-11-22T15:01:11.982Z,40.79
2017-11-22T15:03:39.437Z,40.99
2017-11-22T15:06:06.917Z,41.37
2017-11-22T15:08:34.393Z,41.49
2017-11-22T15:11:01.846Z,41.84
2017-11-22T15:13:29.367Z,42.09
2017-11-22T15:15:56.867Z,42.33
2017-11-22T15:18:25.280Z,42.43
2017-11-22T15:20:52.792Z,42.76
2017-11-22T15:23:20.318Z,42.83
2017-11-22T15:25:47.774Z,42.64
2017-11-22T15:28:15.478Z,42.97
2017-11-22T15:30:43.003Z,43.11
2017-11-22T15:33:10.484Z,43.23
2017-11-22T15:35:37.999Z,43.19
2017-11-22T15:38:05.541Z,43.62
2017-11-22T15:40:34.102Z,43.42
2017-11-22T15:43:01.567Z,43.66
2017-11-22T15:45:29.065Z,43.94
2017-11-22T15:47:56.558Z,44.27
2017-11-22T15:50:24.048Z,44.72
2017-11-22T15:52:51.561Z,44.83
2017-11-22T15:55:19.368Z,45.60
2017-11-22T15:57:46.860Z,46.05
2017-11-22T16:00:14.336Z,46.75
2017-11-22T16:02:41.822Z,47.51
2017-11-22T16:05:09.320Z,47.81
2017-11-22T16:07:36.836Z,47.99
2017-11-22T16:10:04.339Z,48.16
2017-11-22T16:12:31.853Z,48.12
2017-11-22T16:14:59.402Z,47.56
2017-11-22T16:17:26.854Z,47.17
2017-11-22T16:19:54.349Z,46.65
2017-11-22T16:22:21.821Z,46.71
2017-11-22T16:24:49.943Z,45.68
2017-11-22T16:27:19.079Z,45.74
2017-11-22T16:29:46.551Z,45.82
2017-11-22T16:32:14.105Z,45.69
2017-11-22T16:34:41.603Z,45.72
2017-11-22T16:37:09.056Z,45.87
2017-11-22T16:39:36.534Z,46.30
2017-11-22T16:42:03.997Z,46.25
2017-11-22T16:44:31.566Z,46.38
2017-11-22T16:46:59.058Z,46.45
2017-11-22T16:49:26.542Z,46.58
2017-11-22T16:51:54.096Z,46.50
2017-11-22T16:54:21.585Z,46.81
2017-11-22T16:56:49.038Z,47.47
2017-11-22T16:59:16.524Z,47.48
2017-11-22T17:01:43.972Z,47.73
2017-11-22T17:04:11.500Z,48.15
2017-11-22T17:06:38.968Z,48.18
2017-11-22T17:09:06.526Z,48.30
2017-11-22T17:14:07.885Z,48.71
2017-11-22T17:16:35.375Z,48.61
2017-11-22T17:19:03.122Z,48.65
2017-11-22T17:21:30.601Z,48.83
2017-11-22T17:23:58.123Z,48.96
2017-11-22T17:26:25.597Z,48.90
2017-11-22T17:28:53.146Z,49.02
2017-11-22T17:31:20.649Z,49.16
2017-11-22T17:33:48.125Z,49.00
2017-11-22T17:36:15.620Z,49.13
2017-11-22T17:38:43.085Z,49.37
2017-11-22T17:41:10.577Z,49.36
2017-11-22T17:43:38.084Z,49.79
2017-11-22T17:46:05.573Z,50.12
2017-11-22T17:48:33.055Z,50.30
2017-11-22T17:51:00.529Z,50.75
2017-11-22T17:53:28.073Z,51.30
2017-11-22T17:55:55.552Z,51.55
2017-11-22T17:58:23.042Z,51.73
2017-11-22T18:00:50.517Z,52.28
2017-11-22T18:03:18.020Z,52.60
2017-11-22T18:05:45.562Z,52.82
2017-11-22T18:08:13.067Z,53.47
2017-11-22T18:10:40.569Z,53.85
2017-11-22T18:13:08.062Z,54.26
2017-11-22T18:15:35.568Z,54.75
2017-11-22T18:18:03.072Z,54.88
2017-11-22T18:20:30.584Z,54.89
2017-11-22T18:22:58.042Z,54.72
2017-11-22T18:25:26.035Z,55.05
2017-11-22T18:27:53.648Z,55.55
2017-11-22T18:32:54.927Z,56.16
2017-11-22T18:35:22.399Z,56.60
2017-11-22T18:37:50.589Z,56.84
2017-11-22T18:40:18.160Z,57.49
2017-11-22T18:42:47.788Z,57.70
2017-11-22T18:45:16.473Z,58.13
2017-11-22T18:47:44.032Z,58.09
2017-11-22T18:50:11.584Z,58.52
2017-11-22T18:52:39.208Z,58.85
2017-11-22T18:55:06.803Z,59.51
2017-11-22T18:57:34.331Z,59.94
2017-11-22T19:00:01.928Z,60.28
2017-11-22T19:02:29.507Z,60.49
2017-11-22T19:04:57.134Z,60.46
2017-11-22T19:07:24.680Z,60.33
2017-11-22T19:09:52.196Z,60.31
2017-11-22T19:12:19.698Z,60.49
2017-11-22T19:14:47.159Z,60.19
2017-11-22T19:17:14.799Z,59.81
2017-11-22T19:19:42.288Z,59.63
2017-11-22T19:22:09.753Z,59.30
2017-11-22T19:24:37.306Z,60.02
2017-11-22T19:27:05.685Z,60.76
2017-11-22T19:29:33.164Z,61.40
2017-11-22T19:32:00.652Z,62.32
2017-11-22T19:34:28.209Z,62.99
2017-11-22T19:36:55.721Z,64.01
2017-11-22T19:39:23.270Z,64.49
2017-11-22T19:41:50.735Z,64.87
2017-11-22T19:44:18.608Z,65.37
2017-11-22T19:46:46.096Z,65.56
2017-11-22T19:49:13.582Z,65.71
2017-11-22T19:51:41.081Z,65.98
2017-11-22T19:54:08.564Z,66.18
2017-11-22T19:56:37.356Z,66.39
2017-11-22T19:59:04.873Z,66.76
2017-11-22T20:01:32.417Z,66.90
2017-11-22T20:03:59.890Z,66.81
2017-11-22T20:06:30.628Z,67.02
2017-11-22T20:09:02.919Z,67.26
2017-11-22T20:11:30.408Z,67.52
2017-11-22T20:13:57.909Z,67.90
2017-11-22T20:16:25.394Z,68.65
2017-11-22T20:18:52.920Z,68.58
2017-11-22T20:21:20.406Z,69.21
2017-11-22T20:23:47.888Z,69.08
2017-11-22T20:26:16.233Z,69.90
2017-11-22T20:28:44.037Z,70.57
2017-11-22T20:31:11.512Z,70.96
2017-11-22T20:33:38.988Z,71.39
2017-11-22T20:36:06.489Z,72.42
2017-11-22T20:38:36.110Z,72.96
2017-11-22T20:41:03.597Z,73.17
2017-11-22T20:43:31.126Z,74.34
2017-11-22T20:45:58.685Z,75.14
2017-11-22T20:48:28.829Z,75.78
2017-11-22T20:50:56.320Z,76.61
2017-11-22T20:53:23.918Z,77.76
2017-11-22T20:55:51.626Z,78.04
2017-11-22T20:58:19.258Z,78.38
2017-11-22T21:00:46.761Z,78.88
2017-11-22T21:03:18.376Z,80.10
2017-11-22T21:05:45.841Z,80.53
2017-11-22T21:08:13.335Z,80.55
2017-11-22T21:10:40.825Z,80.88
2017-11-22T21:13:08.337Z,81.20
2017-11-22T21:15:35.821Z,82.27
2017-11-22T21:18:03.394Z,82.53
2017-11-22T21:20:30.875Z,81.35
2017-11-22T21:22:58.391Z,81.58
2017-11-22T21:25:25.889Z,82.00
2017-11-22T21:27:53.345Z,82.42
2017-11-22T21:30:20.879Z,82.91
2017-11-22T21:32:48.421Z,83.55
2017-11-22T21:35:15.877Z,83.60
2017-11-22T21:37:43.445Z,84.17
2017-11-22T21:40:10.898Z,84.11
2017-11-22T21:42:38.368Z,84.25
2017-11-22T21:45:06.272Z,84.36
2017-11-22T21:47:33.726Z,84.54
2017-11-22T21:50:01.204Z,84.39
2017-11-22T21:52:28.696Z,84.65
2017-11-22T21:54:56.179Z,85.13
2017-11-22T21:57:26.605Z,85.18
2017-11-22T21:59:54.102Z,85.18
2017-11-22T22:02:21.583Z,85.19
2017-11-22T22:04:49.079Z,85.56
2017-11-22T22:07:16.566Z,85.92
2017-11-22T22:09:44.044Z,86.19
2017-11-22T22:12:11.535Z,86.33
2017-11-22T22:14:40.033Z,86.63
2017-11-22T22:17:13.135Z,86.83
2017-11-22T22:19:40.597Z,86.71
2017-11-22T22:22:08.044Z,87.01
2017-11-22T22:24:35.508Z,87.44
2017-11-22T22:27:02.965Z,87.54
2017-11-22T22:29:30.448Z,88.08
2017-11-22T22:31:57.895Z,88.17
2017-11-22T22:34:25.360Z,88.63
2017-11-22T22:36:52.842Z,88.79
2017-11-22T22:39:20.317Z,88.76
2017-11-22T22:41:47.820Z,88.72
2017-11-22T22:44:17.161Z,88.85
2017-11-22T22:46:44.939Z,89.35
2017-11-22T22:49:12.487Z,89.58
2017-11-22T22:51:40.015Z,89.70
2017-11-22T22:54:07.535Z,89.79
2017-11-22T22:56:36.979Z,89.91
2017-11-22T22:59:04.584Z,90.20
2017-11-22T23:01:32.079Z,90.21
2017-11-22T23:03:59.560Z,90.28
2017-11-22T23:06:27.327Z,90.25
2017-11-22T23:08:54.827Z,90.30
2017-11-22T23:11:22.296Z,90.36
2017-11-22T23:13:49.774Z,90.37
2017-11-22T23:16:18.347Z,90.29
2017-11-22T23:18:45.990Z,90.27
2017-11-22T23:21:13.456Z,90.30
2017-11-22T23:23:40.926Z,90.56
2017-11-22T23:26:08.448Z,90.21
2017-11-22T23:28:36.829Z,90.14
2017-11-22T23:31:05.099Z,90.05
2017-11-22T23:33:32.560Z,90.00
2017-11-22T23:36:00.055Z,89.99
2017-11-22T23:38:27.529Z,90.09
2017-11-22T23:40:55.032Z,90.14
2017-11-22T23:43:22.521Z,90.27
2017-11-22T23:45:49.992Z,90.27
2017-11-22T23:48:17.756Z,90.32
2017-11-22T23:50:45.329Z,90.52
2017-11-22T23:53:12.798Z,90.84
2017-11-22T23:55:40.254Z,90.97
2017-11-22T23:58:07.762Z,91.14
